Time;durP1;ratioP1;P1;durP2;ratioP2;P2;SDS_P1;SDS_P2;PMS_P1;PMS_P2;Temp;Humidity;BMP_temperature;BMP_pressure;BME280_temperature;BME280_humidity;BME280_pressure;Samples;Min_cycle;Max_cycle;Signal;HPM_P1;HPM_P2
2024/02/17 00:00:34;;;;;;;24.38;12.32;;;;;;;6.04;76.86;100600.38;5030126;28;20385;-26
2024/02/17 00:02:59;;;;;;;22.50;12.20;;;;;;;5.94;77.79;100600.44;5030555;28;20031;-26
2024/02/17 00:05:25;;;;;;;24.20;12.38;;;;;;;5.92;77.58;100604.19;5030429;28;20060;-26
2024/02/17 00:07:52;;;;;;;24.63;11.95;;;;;;;5.93;77.68;100597.94;5030450;28;20025;-26
2024/02/17 00:10:18;;;;;;;24.38;12.82;;;;;;;6.09;76.46;100594.63;5030334;28;20500;-26
2024/02/17 00:12:43;;;;;;;21.80;12.38;;;;;;;5.98;77.68;100593.88;5030406;28;20123;-26
2024/02/17 00:15:09;;;;;;;22.27;12.50;;;;;;;5.67;77.92;100601.31;5031317;28;20108;-26
2024/02/17 00:17:34;;;;;;;24.92;12.38;;;;;;;5.86;77.99;100602.97;5033811;28;20045;-27
2024/02/17 00:20:00;;;;;;;22.90;12.40;;;;;;;5.97;77.07;100599.31;5034141;28;20033;-26
2024/02/17 00:22:25;;;;;;;24.42;11.98;;;;;;;5.97;76.39;100602.78;5034108;28;20029;-26
2024/02/17 00:24:50;;;;;;;23.88;11.55;;;;;;;5.97;76.50;100596.66;5034046;28;20486;-26
2024/02/17 00:27:16;;;;;;;24.63;12.02;;;;;;;5.86;77.64;100598.53;5033761;28;20414;-26
2024/02/17 00:29:41;;;;;;;21.08;12.15;;;;;;;5.52;78.40;100592.25;5033700;28;20104;-26
2024/02/17 00:32:07;;;;;;;23.30;12.25;;;;;;;5.71;78.25;100599.22;5033371;28;20035;-26
2024/02/17 00:34:32;;;;;;;24.08;12.88;;;;;;;5.63;78.65;100592.88;5033686;28;20037;-28
2024/02/17 00:36:58;;;;;;;23.55;12.30;;;;;;;5.66;78.94;100594.38;5033529;28;20017;-26
2024/02/17 00:39:23;;;;;;;22.70;12.30;;;;;;;5.68;78.48;100598.53;5033740;28;20025;-27
2024/02/17 00:41:48;;;;;;;22.27;12.27;;;;;;;5.56;79.05;100598.91;5033546;28;20013;-27
2024/02/17 00:44:14;;;;;;;21.20;12.18;;;;;;;5.84;79.23;100602.31;5033430;28;20037;-27
2024/02/17 00:46:40;;;;;;;25.33;13.07;;;;;;;5.73;78.62;100600.75;5033549;28;20025;-25
2024/02/17 00:49:05;;;;;;;22.20;12.43;;;;;;;6.12;76.77;100597.78;5033049;28;20032;-26
2024/02/17 00:51:31;;;;;;;23.48;11.88;;;;;;;5.87;77.42;100594.91;5033348;28;20025;-26
2024/02/17 00:53:56;;;;;;;24.15;12.23;;;;;;;5.62;79.06;100601.78;5033083;28;20095;-26
2024/02/17 00:56:21;;;;;;;26.98;13.02;;;;;;;5.68;79.03;100601.16;5033155;28;20512;-26
2024/02/17 00:58:47;;;;;;;22.85;12.32;;;;;;;5.62;80.24;100603.59;5033183;28;20027;-26
2024/02/17 01:01:13;;;;;;;22.40;12.57;;;;;;;5.54;79.73;100606.13;5033907;28;20017;-26
2024/02/17 01:03:38;;;;;;;22.65;12.00;;;;;;;5.48;80.57;100597.00;5033651;28;20025;-26
2024/02/17 01:06:04;;;;;;;24.38;12.40;;;;;;;5.48;80.77;100597.00;5033500;28;20449;-25
2024/02/17 01:08:30;;;;;;;22.13;12.57;;;;;;;5.58;80.60;100594.28;5032528;28;20112;-25
2024/02/17 01:10:55;;;;;;;25.98;12.82;;;;;;;5.56;80.90;100591.81;5033610;28;20029;-26
2024/02/17 01:13:21;;;;;;;26.52;13.10;;;;;;;5.41;80.99;100590.69;5033163;28;20036;-26
2024/02/17 01:15:46;;;;;;;25.52;11.98;;;;;;;5.36;80.98;100601.66;5033435;28;20041;-26
2024/02/17 01:18:12;;;;;;;24.77;13.02;;;;;;;5.56;79.93;100597.09;5033091;28;20099;-26
2024/02/17 01:20:37;;;;;;;24.55;12.93;;;;;;;5.66;79.92;100603.13;5032905;28;20025;-26
2024/02/17 01:23:03;;;;;;;28.55;12.88;;;;;;;5.63;79.95;100594.69;5033165;28;20047;-26
2024/02/17 01:25:28;;;;;;;23.45;12.55;;;;;;;5.63;79.40;100607.88;5033005;28;20026;-26
2024/02/17 01:27:53;;;;;;;24.45;11.75;;;;;;;5.41;80.63;100615.25;5032021;28;20038;-26
2024/02/17 01:30:19;;;;;;;22.45;12.50;;;;;;;5.40;79.92;100592.47;5032731;28;20154;-26
2024/02/17 01:32:44;;;;;;;22.52;11.73;;;;;;;5.49;79.23;100596.03;5032803;28;20048;-26
2024/02/17 01:35:10;;;;;;;23.58;12.57;;;;;;;5.24;79.33;100598.41;5032767;28;20026;-25
2024/02/17 01:37:35;;;;;;;22.17;12.75;;;;;;;5.27;80.83;100592.00;5032881;28;20118;-25
2024/02/17 01:40:01;;;;;;;27.85;13.63;;;;;;;5.38;80.09;100588.34;5032861;28;20072;-25
2024/02/17 01:42:26;;;;;;;24.92;12.77;;;;;;;5.31;80.37;100582.81;5032965;28;20017;-26
2024/02/17 01:44:52;;;;;;;26.45;12.45;;;;;;;5.43;80.44;100586.91;5032678;28;20611;-26
2024/02/17 01:47:18;;;;;;;28.08;12.70;;;;;;;5.20;80.85;100591.78;5032875;28;20030;-26
2024/02/17 01:49:43;;;;;;;23.83;13.00;;;;;;;5.36;79.67;100580.56;5032808;28;20032;-26
2024/02/17 01:52:09;;;;;;;22.85;12.63;;;;;;;5.25;79.96;100586.88;5032678;28;20025;-26
2024/02/17 01:54:36;;;;;;;25.10;13.30;;;;;;;5.17;79.95;100586.78;5032472;28;20026;-26
2024/02/17 01:57:04;;;;;;;24.65;12.65;;;;;;;5.19;79.79;100571.63;5032293;28;20101;-27
2024/02/17 01:59:29;;;;;;;25.20;12.95;;;;;;;5.17;79.70;100578.03;5032172;28;20488;-27
2024/02/17 02:01:55;;;;;;;30.70;14.02;;;;;;;5.02;81.05;100575.88;5032301;28;20025;-26
2024/02/17 02:04:21;;;;;;;24.35;12.98;;;;;;;5.21;80.32;100576.75;5032726;28;20041;-27
2024/02/17 02:06:47;;;;;;;25.10;13.45;;;;;;;5.05;80.02;100583.50;5032271;28;20351;-27
2024/02/17 02:09:14;;;;;;;27.80;13.35;;;;;;;4.98;79.80;100569.25;5032245;28;20025;-26
2024/02/17 02:11:40;;;;;;;26.63;13.68;;;;;;;5.17;79.95;100568.31;5032798;28;20029;-27
2024/02/17 02:14:18;;;;;;;26.02;13.80;;;;;;;5.05;80.70;100572.97;5031916;28;20024;-26
2024/02/17 02:16:44;;;;;;;25.70;13.93;;;;;;;4.97;80.55;100577.31;5032117;28;20370;-27
2024/02/17 02:19:10;;;;;;;26.60;13.45;;;;;;;4.99;79.93;100578.84;5031731;28;20041;-27
2024/02/17 02:21:37;;;;;;;28.98;12.93;;;;;;;4.79;81.58;100585.16;5032197;28;20104;-26
2024/02/17 02:24:03;;;;;;;26.10;13.27;;;;;;;4.56;82.50;100587.34;5032046;28;20124;-27
2024/02/17 02:26:31;;;;;;;28.38;13.60;;;;;;;4.71;82.08;100580.63;5032103;28;20511;-26
2024/02/17 02:28:57;;;;;;;26.05;13.57;;;;;;;4.85;81.60;100588.03;5032138;28;20029;-25
2024/02/17 02:31:23;;;;;;;24.38;13.32;;;;;;;4.79;81.58;100593.06;5031935;28;20025;-27
2024/02/17 02:33:51;;;;;;;24.52;13.43;;;;;;;4.41;82.87;100593.06;5030431;28;20019;-25
2024/02/17 02:36:23;;;;;;;26.85;13.00;;;;;;;4.45;82.63;100591.78;5032139;28;20029;-25
2024/02/17 02:38:48;;;;;;;25.17;12.95;;;;;;;4.60;83.08;100583.44;5031482;28;20018;-25
2024/02/17 02:41:14;;;;;;;27.92;13.35;;;;;;;4.44;82.88;100576.97;5031703;28;20040;-25
2024/02/17 02:43:40;;;;;;;25.30;13.15;;;;;;;4.76;82.28;100590.72;5027256;28;20079;-26
2024/02/17 02:46:06;;;;;;;25.92;13.45;;;;;;;4.88;81.47;100593.03;5012298;28;20025;-26
2024/02/17 02:48:32;;;;;;;23.23;12.43;;;;;;;4.88;81.95;100597.50;5011985;28;20057;-25
2024/02/17 02:50:58;;;;;;;27.88;12.70;;;;;;;4.65;82.15;100589.13;5022168;28;20520;-26
2024/02/17 02:53:26;;;;;;;26.60;13.48;;;;;;;4.86;82.69;100586.25;5031396;28;20354;-25
2024/02/17 02:55:52;;;;;;;25.92;13.65;;;;;;;4.75;84.62;100584.63;5031732;28;20021;-27
2024/02/17 02:58:18;;;;;;;26.08;13.80;;;;;;;4.90;82.71;100590.25;5031057;28;20082;-26
2024/02/17 03:00:43;;;;;;;26.75;13.60;;;;;;;4.81;82.66;100586.66;5031400;28;20101;-26
2024/02/17 03:03:10;;;;;;;20.63;12.52;;;;;;;4.67;82.20;100593.25;5031338;28;20112;-26
2024/02/17 03:05:35;;;;;;;24.95;14.23;;;;;;;4.63;82.88;100580.53;5031429;28;20070;-26
2024/02/17 03:08:01;;;;;;;27.40;13.10;;;;;;;4.69;83.88;100587.84;5031398;28;20449;-25
2024/02/17 03:10:26;;;;;;;25.17;14.27;;;;;;;4.74;82.79;100590.03;5031262;28;20497;-26
2024/02/17 03:12:51;;;;;;;23.73;14.25;;;;;;;4.68;82.23;100594.09;5031293;28;20033;-26
2024/02/17 03:15:17;;;;;;;28.63;14.63;;;;;;;4.73;82.16;100593.66;5031356;28;20029;-26
2024/02/17 03:17:42;;;;;;;28.67;15.00;;;;;;;4.94;81.31;100599.53;5031225;28;20445;-27
2024/02/17 03:20:08;;;;;;;27.52;14.10;;;;;;;4.49;82.68;100600.25;5031589;28;20033;-26
2024/02/17 03:22:34;;;;;;;26.88;13.88;;;;;;;4.38;81.73;100590.72;5031373;28;20021;-27
2024/02/17 03:24:59;;;;;;;28.13;15.32;;;;;;;4.33;84.03;100605.28;5031180;28;20045;-26
2024/02/17 03:27:24;;;;;;;29.30;14.38;;;;;;;4.18;83.91;100605.72;5031088;28;20045;-26
2024/02/17 03:29:50;;;;;;;25.38;14.25;;;;;;;4.17;84.59;100603.22;5031426;28;20025;-26
2024/02/17 03:32:15;;;;;;;28.30;15.18;;;;;;;4.40;82.70;100606.38;5031121;28;20075;-26
2024/02/17 03:34:41;;;;;;;28.65;14.55;;;;;;;4.26;83.47;100608.47;5030910;28;20026;-26
2024/02/17 03:37:07;;;;;;;26.65;14.43;;;;;;;4.23;83.14;100605.31;5030912;28;20083;-26
2024/02/17 03:39:33;;;;;;;25.42;13.63;;;;;;;4.24;82.34;100596.44;5030676;28;20029;-26
2024/02/17 03:41:59;;;;;;;23.52;12.38;;;;;;;4.06;83.51;100615.59;5030896;28;20029;-26
2024/02/17 03:44:25;;;;;;;24.65;13.25;;;;;;;4.26;82.29;100607.66;5031158;28;20060;-26
2024/02/17 03:46:50;;;;;;;24.05;12.63;;;;;;;4.13;82.99;100613.22;5038536;28;20032;-26
2024/02/17 03:49:20;;;;;;;22.23;11.35;;;;;;;4.15;82.90;100615.72;5039310;28;20139;-26
2024/02/17 03:51:45;;;;;;;21.02;11.65;;;;;;;4.19;82.49;100615.31;5041418;28;20071;-26
2024/02/17 03:54:11;;;;;;;21.42;11.52;;;;;;;4.20;81.82;100613.50;5042998;28;20026;-27
2024/02/17 03:56:36;;;;;;;21.00;11.20;;;;;;;4.06;82.22;100610.31;5045791;28;20096;-26
2024/02/17 03:59:01;;;;;;;19.30;10.30;;;;;;;3.94;82.04;100611.44;5033917;28;20477;-25
2024/02/17 04:01:27;;;;;;;21.92;11.27;;;;;;;3.96;82.44;100612.13;5045369;28;20012;-27
2024/02/17 04:03:52;;;;;;;19.13;10.50;;;;;;;3.90;82.29;100604.78;5043645;28;20052;-26
2024/02/17 04:06:18;;;;;;;20.65;10.98;;;;;;;3.99;82.19;100609.22;5041175;28;20166;-26
2024/02/17 04:08:43;;;;;;;19.48;10.40;;;;;;;4.08;80.99;100610.19;5042880;28;20021;-26
2024/02/17 04:11:09;;;;;;;20.30;10.02;;;;;;;3.86;81.47;100603.38;5041141;28;20418;-25
2024/02/17 04:13:34;;;;;;;20.77;11.48;;;;;;;4.04;82.58;100612.25;5034423;28;20021;-25
2024/02/17 04:16:00;;;;;;;20.83;10.88;;;;;;;3.94;82.13;100608.81;5031138;28;20551;-26
2024/02/17 04:18:25;;;;;;;17.95;10.23;;;;;;;3.84;81.76;100608.78;5042073;28;20069;-26
2024/02/17 04:20:53;;;;;;;19.52;10.30;;;;;;;3.88;82.13;100612.84;5043676;28;20037;-26
2024/02/17 04:23:19;;;;;;;18.50;10.30;;;;;;;3.76;82.93;100613.91;5048296;28;20021;-26
2024/02/17 04:25:44;;;;;;;23.50;10.30;;;;;;;3.87;81.91;100618.22;5045715;28;20040;-26
2024/02/17 04:28:10;;;;;;;21.25;9.88;;;;;;;4.05;81.56;100624.44;5038262;28;20128;-26
2024/02/17 04:30:35;;;;;;;20.83;10.52;;;;;;;4.10;80.19;100621.41;5034018;28;20147;-26
2024/02/17 04:33:01;;;;;;;19.30;10.35;;;;;;;4.00;80.75;100620.56;5034058;28;20101;-26
2024/02/17 04:35:26;;;;;;;42.03;21.70;;;;;;;3.89;82.02;100622.38;5033800;28;20025;-26
2024/02/17 04:37:53;;;;;;;32.30;17.52;;;;;;;3.86;81.58;100633.19;5033996;28;20022;-26
2024/02/17 04:40:19;;;;;;;27.23;14.48;;;;;;;3.98;80.64;100631.25;5033890;28;20473;-26
2024/02/17 04:42:44;;;;;;;29.33;14.63;;;;;;;3.90;80.92;100634.59;5033965;28;20064;-26
2024/02/17 04:45:11;;;;;;;21.48;11.73;;;;;;;3.97;80.27;100626.13;5033606;28;20103;-25
2024/02/17 04:47:37;;;;;;;26.38;12.57;;;;;;;4.23;79.02;100629.84;5033776;28;20092;-26
2024/02/17 04:50:03;;;;;;;18.42;10.57;;;;;;;4.10;80.27;100632.78;5033820;28;20030;-26
2024/02/17 04:52:28;;;;;;;21.30;10.07;;;;;;;4.04;79.76;100635.16;5033710;28;20028;-25
2024/02/17 04:54:53;;;;;;;19.23;10.57;;;;;;;3.98;79.56;100625.16;5033887;28;20026;-26
2024/02/17 04:57:19;;;;;;;15.15;9.07;;;;;;;4.01;79.98;100630.16;5033579;28;20025;-26
2024/02/17 04:59:44;;;;;;;16.85;9.20;;;;;;;3.96;79.94;100625.31;5033754;28;20029;-27
2024/02/17 05:02:11;;;;;;;20.33;9.88;;;;;;;4.05;78.50;100632.34;5033799;28;20029;-26
2024/02/17 05:04:36;;;;;;;18.95;9.70;;;;;;;3.85;78.60;100623.63;5033918;28;20183;-25
2024/02/17 05:07:02;;;;;;;18.58;9.90;;;;;;;3.86;81.09;100629.72;5034251;28;20442;-27
2024/02/17 05:09:28;;;;;;;19.25;10.10;;;;;;;3.69;79.79;100636.50;5034261;28;20018;-26
2024/02/17 05:11:55;;;;;;;22.67;10.75;;;;;;;3.55;80.69;100640.38;5034287;28;20485;-27
2024/02/17 05:14:22;;;;;;;21.40;9.82;;;;;;;3.47;80.03;100627.88;5033476;28;20029;-26
2024/02/17 05:16:48;;;;;;;21.42;10.52;;;;;;;3.63;81.96;100643.13;5046824;28;20457;-27
2024/02/17 05:19:14;;;;;;;16.77;9.25;;;;;;;3.55;80.49;100636.91;5038426;28;20057;-26
2024/02/17 05:21:43;;;;;;;21.42;10.65;;;;;;;3.51;80.83;100644.25;5033947;28;20056;-26
2024/02/17 05:24:09;;;;;;;20.60;10.68;;;;;;;3.66;81.14;100642.88;5033145;28;20045;-26
2024/02/17 05:26:39;;;;;;;21.80;10.18;;;;;;;3.89;80.60;100648.72;5033233;28;20099;-27
2024/02/17 05:29:06;;;;;;;19.98;10.55;;;;;;;3.75;80.12;100654.41;5033206;28;20029;-25
2024/02/17 05:31:32;;;;;;;18.23;10.35;;;;;;;3.79;80.50;100653.16;5033028;28;20033;-27
2024/02/17 05:33:58;;;;;;;19.60;10.10;;;;;;;3.49;79.66;100660.16;5032642;28;20026;-26
2024/02/17 05:36:24;;;;;;;19.65;10.20;;;;;;;3.45;80.16;100660.56;5032046;28;20022;-27
2024/02/17 05:38:50;;;;;;;18.25;10.27;;;;;;;3.70;78.86;100665.31;5033453;28;20024;-27
2024/02/17 05:41:16;;;;;;;18.90;9.70;;;;;;;3.58;78.85;100645.38;5033538;28;20025;-27
2024/02/17 05:43:41;;;;;;;16.95;9.07;;;;;;;3.70;78.57;100653.97;5032819;28;20025;-27
2024/02/17 05:46:08;;;;;;;22.10;9.98;;;;;;;3.94;78.44;100658.00;5032899;28;20087;-27
2024/02/17 05:48:33;;;;;;;18.90;10.10;;;;;;;4.36;76.52;100666.47;5032923;28;20018;-26
2024/02/17 05:50:59;;;;;;;19.75;9.60;;;;;;;4.33;75.61;100679.09;5032072;28;20389;-26
2024/02/17 05:53:24;;;;;;;16.30;9.27;;;;;;;4.60;75.33;100671.25;5032735;28;20033;-25
2024/02/17 05:55:50;;;;;;;14.70;9.13;;;;;;;4.39;75.49;100671.44;5032693;28;20067;-26
2024/02/17 05:58:15;;;;;;;17.08;9.07;;;;;;;4.38;75.64;100679.47;5032714;28;20021;-26
2024/02/17 06:00:40;;;;;;;16.13;8.55;;;;;;;4.66;74.35;100683.91;5034710;28;20037;-26
2024/02/17 06:03:07;;;;;;;18.80;9.85;;;;;;;4.78;74.49;100686.34;5032506;28;20032;-27
2024/02/17 06:05:33;;;;;;;53.58;26.05;;;;;;;4.72;75.58;100686.91;5032989;28;20037;-27
2024/02/17 06:07:58;;;;;;;39.28;20.15;;;;;;;4.90;74.51;100695.75;5032516;28;20017;-27
2024/02/17 06:10:24;;;;;;;15.20;9.23;;;;;;;5.05;73.13;100682.94;5032816;28;20158;-26
2024/02/17 06:12:50;;;;;;;18.55;9.00;;;;;;;5.19;72.11;100694.84;5032465;28;20025;-26
2024/02/17 06:15:16;;;;;;;15.68;8.57;;;;;;;5.34;72.13;100693.38;5032979;28;20044;-26
2024/02/17 06:17:43;;;;;;;17.73;9.35;;;;;;;5.80;69.96;100683.66;5030677;28;20490;-26
2024/02/17 06:22:55;;;;;;;19.48;9.38;;;;;;;6.28;67.82;100697.50;5032586;28;20036;-26
2024/02/17 06:25:22;;;;;;;15.40;9.45;;;;;;;6.56;67.01;100700.88;5032439;28;20037;-27
2024/02/17 06:27:47;;;;;;;18.15;9.63;;;;;;;6.76;65.77;100704.19;5032194;28;20053;-27
2024/02/17 06:30:14;;;;;;;19.67;8.82;;;;;;;7.21;64.46;100694.34;5032283;28;20040;-27
2024/02/17 06:32:40;;;;;;;19.23;9.52;;;;;;;7.46;63.00;100703.22;5032625;28;20037;-27
2024/02/17 06:35:06;;;;;;;16.88;8.65;;;;;;;7.05;63.72;100701.22;5032035;28;20144;-27
2024/02/17 06:37:31;;;;;;;16.90;8.63;;;;;;;7.27;63.63;100701.63;5031698;28;20021;-27
2024/02/17 06:39:57;;;;;;;15.75;8.80;;;;;;;7.63;62.41;100694.34;5031686;28;20425;-26
2024/02/17 06:42:23;;;;;;;15.23;8.80;;;;;;;7.70;62.19;100707.78;5031881;28;20437;-26
2024/02/17 06:44:48;;;;;;;13.93;9.15;;;;;;;7.91;62.21;100711.81;5031718;28;20040;-26
2024/02/17 06:47:14;;;;;;;13.38;8.27;;;;;;;8.11;61.84;100709.69;5031384;28;20525;-29
2024/02/17 06:49:40;;;;;;;14.90;8.82;;;;;;;8.45;60.20;100698.94;5032031;28;20405;-26
2024/02/17 06:52:05;;;;;;;14.90;8.55;;;;;;;8.68;59.22;100703.59;5031583;28;20029;-28
2024/02/17 06:54:31;;;;;;;16.25;8.88;;;;;;;8.80;58.32;100711.03;5031565;28;20453;-27
2024/02/17 06:56:57;;;;;;;19.92;9.52;;;;;;;8.88;58.19;100704.88;5031419;28;20064;-29
2024/02/17 06:59:23;;;;;;;11.65;8.05;;;;;;;8.68;58.48;100704.44;5031316;28;20028;-29
2024/02/17 07:01:48;;;;;;;14.65;8.85;;;;;;;8.86;59.14;100704.22;5031571;28;20021;-27
2024/02/17 07:04:15;;;;;;;17.13;9.27;;;;;;;9.12;58.54;100703.16;5031411;28;20446;-27
2024/02/17 07:06:43;;;;;;;17.50;8.88;;;;;;;8.83;59.10;100699.25;5031054;28;20501;-28
2024/02/17 07:09:11;;;;;;;17.60;9.32;;;;;;;9.15;58.61;100702.84;5031353;28;20155;-27
2024/02/17 07:11:37;;;;;;;16.58;9.55;;;;;;;9.08;57.80;100702.69;5031008;28;20030;-28
2024/02/17 07:14:02;;;;;;;16.17;10.00;;;;;;;9.73;56.58;100704.25;5030220;28;20021;-26
2024/02/17 07:16:28;;;;;;;21.27;8.88;;;;;;;12.17;87.67;100707.50;5030625;28;20026;-28
2024/02/17 07:18:57;;;;;;;16.15;9.27;;;;;;;13.40;49.02;100697.28;5030541;28;20517;-28
2024/02/17 07:21:24;;;;;;;16.63;9.77;;;;;;;12.26;48.64;100695.63;5030498;28;20029;-27
2024/02/17 07:23:50;;;;;;;16.63;10.35;;;;;;;11.42;50.42;100699.63;5030378;28;20029;-26
2024/02/17 07:26:15;;;;;;;14.32;9.02;;;;;;;11.40;50.26;100706.97;5032787;28;20026;-27
2024/02/17 07:28:41;;;;;;;16.92;9.23;;;;;;;11.34;50.62;100703.22;5034307;28;20021;-27
2024/02/17 07:31:07;;;;;;;24.75;14.35;;;;;;;12.01;53.88;100700.53;5034341;28;20410;-27
2024/02/17 07:33:32;;;;;;;21.45;12.23;;;;;;;13.06;51.92;100701.59;5034480;28;20055;-26
2024/02/17 07:35:58;;;;;;;31.38;19.08;;;;;;;13.86;53.95;100696.66;5033860;28;20029;-26
2024/02/17 07:38:23;;;;;;;31.38;17.55;;;;;;;14.39;51.08;100712.81;5033989;28;20216;-27
2024/02/17 07:40:49;;;;;;;13.10;8.60;;;;;;;14.45;43.77;100711.16;5033642;28;20017;-28
2024/02/17 07:43:14;;;;;;;12.40;8.38;;;;;;;13.65;45.71;100711.81;5034343;28;20045;-27
2024/02/17 07:45:40;;;;;;;13.13;8.30;;;;;;;13.42;45.42;100709.44;5033694;28;20023;-29
2024/02/17 07:48:06;;;;;;;16.35;9.30;;;;;;;12.99;46.85;100708.75;5034365;28;20105;-28
2024/02/17 07:50:31;;;;;;;13.43;8.70;;;;;;;13.16;46.66;100703.94;5034520;28;20231;-27
2024/02/17 07:52:57;;;;;;;13.25;8.57;;;;;;;13.43;45.14;100704.91;5034650;28;20017;-29
2024/02/17 07:55:23;;;;;;;16.17;9.10;;;;;;;13.30;45.60;100706.50;5028922;28;20029;-27
2024/02/17 07:57:49;;;;;;;12.70;8.35;;;;;;;13.42;45.26;100706.78;5026949;28;20029;-27
2024/02/17 08:00:14;;;;;;;14.95;8.60;;;;;;;13.06;46.30;100697.09;5034505;28;20022;-26
2024/02/17 08:02:41;;;;;;;13.27;8.48;;;;;;;13.15;45.78;100697.75;5034183;28;20026;-28
2024/02/17 08:05:07;;;;;;;12.48;8.30;;;;;;;13.01;47.02;100698.69;5034373;28;20025;-26
2024/02/17 08:07:35;;;;;;;12.80;8.70;;;;;;;12.77;47.17;100700.78;5032776;28;20036;-26
2024/02/17 08:10:00;;;;;;;18.90;11.85;;;;;;;14.07;54.29;100701.84;5034834;28;20377;-27
2024/02/17 08:12:25;;;;;;;21.58;12.10;;;;;;;15.42;49.89;100708.75;5034978;28;20421;-27
2024/02/17 08:14:52;;;;;;;14.35;9.27;;;;;;;17.05;40.58;100706.47;5035159;28;20104;-26
2024/02/17 08:17:17;;;;;;;15.25;9.00;;;;;;;17.65;40.15;100692.31;5034440;28;20100;-28
2024/02/17 08:19:43;;;;;;;15.63;9.45;;;;;;;18.74;40.64;100709.13;5026269;28;20464;-27
2024/02/17 08:22:08;;;;;;;14.10;9.30;;;;;;;19.55;36.30;100708.44;5051152;28;20575;-27
2024/02/17 08:24:33;;;;;;;20.48;10.93;;;;;;;17.07;37.70;100697.13;5032947;28;20032;-27
2024/02/17 08:26:59;;;;;;;22.65;11.43;;;;;;;17.90;37.19;100705.69;5033203;28;20016;-27
2024/02/17 08:29:24;;;;;;;20.63;11.68;;;;;;;18.35;37.50;100705.19;5033588;28;20526;-28
2024/02/17 08:31:50;;;;;;;17.45;11.25;;;;;;;18.64;36.17;100708.91;5033808;28;20478;-27
2024/02/17 08:34:16;;;;;;;17.80;9.93;;;;;;;18.87;34.19;100704.59;5033197;28;20021;-28
2024/02/17 08:36:41;;;;;;;15.90;9.98;;;;;;;19.53;33.59;100705.16;5017650;28;20528;-27
2024/02/17 08:39:09;;;;;;;12.70;9.48;;;;;;;19.21;33.93;100705.63;5032028;28;20022;-27
2024/02/17 08:41:34;;;;;;;17.35;9.45;;;;;;;18.97;34.16;100709.41;5032527;28;20482;-27
2024/02/17 08:44:00;;;;;;;12.85;9.15;;;;;;;18.32;35.43;100708.38;5032106;28;20529;-27
2024/02/17 08:46:25;;;;;;;14.05;9.80;;;;;;;18.10;35.67;100710.78;5030286;28;20037;-28
2024/02/17 08:48:51;;;;;;;12.93;9.02;;;;;;;17.75;36.10;100708.75;5032680;28;20504;-27
2024/02/17 08:51:17;;;;;;;16.23;9.55;;;;;;;18.73;34.94;100714.75;5031522;28;20083;-28
2024/02/17 08:53:43;;;;;;;15.43;9.32;;;;;;;19.36;33.83;100705.09;5018817;28;20038;-27
2024/02/17 08:56:08;;;;;;;17.30;9.82;;;;;;;18.64;34.55;100710.75;5014929;28;20069;-27
2024/02/17 08:58:34;;;;;;;12.32;9.13;;;;;;;18.91;34.43;100701.19;5010693;28;20029;-28
2024/02/17 09:00:59;;;;;;;16.20;10.13;;;;;;;18.69;34.44;100714.38;5011354;28;20083;-27
2024/02/17 09:03:24;;;;;;;13.50;9.68;;;;;;;18.98;34.64;100706.44;5010885;28;20056;-28
2024/02/17 09:05:50;;;;;;;14.90;9.48;;;;;;;19.61;33.78;100707.50;5010962;28;20164;-27
2024/02/17 09:08:15;;;;;;;14.23;8.98;;;;;;;20.29;32.71;100708.50;5011004;28;20041;-29
2024/02/17 09:10:41;;;;;;;12.82;9.43;;;;;;;20.34;32.51;100706.97;5011094;28;20135;-28
2024/02/17 09:13:06;;;;;;;15.80;10.75;;;;;;;18.48;35.44;100707.69;5011501;28;20443;-27
2024/02/17 09:15:31;;;;;;;47.63;32.83;;;;;;;18.93;34.82;100709.84;5012574;28;20033;-27
2024/02/17 09:17:59;;;;;;;53.97;36.03;;;;;;;19.51;33.77;100700.03;4974640;28;1091339;-28
2024/02/17 09:20:24;;;;;;;16.45;11.07;;;;;;;19.94;33.46;100697.06;5013301;28;20033;-27
2024/02/17 09:22:49;;;;;;;12.70;8.95;;;;;;;20.40;33.11;100700.56;5013138;28;20410;-27
2024/02/17 09:25:15;;;;;;;13.52;9.80;;;;;;;20.31;32.80;100692.03;5013256;28;20163;-27
2024/02/17 09:27:40;;;;;;;15.63;9.80;;;;;;;20.41;32.99;100699.47;5013333;28;20022;-27
2024/02/17 09:30:06;;;;;;;12.50;9.25;;;;;;;19.24;33.97;100697.03;5013028;28;20048;-27
2024/02/17 09:32:31;;;;;;;15.15;9.55;;;;;;;18.71;35.06;100687.19;5013355;28;20029;-27
2024/02/17 09:34:57;;;;;;;14.85;9.75;;;;;;;19.76;33.82;100693.50;5012774;28;20030;-27
2024/02/17 09:37:23;;;;;;;16.20;10.20;;;;;;;20.44;33.12;100686.31;5021746;28;20104;-28
2024/02/17 09:39:49;;;;;;;17.48;9.75;;;;;;;20.62;32.53;100685.28;5032613;28;20025;-28
2024/02/17 09:42:14;;;;;;;13.55;9.80;;;;;;;19.78;33.17;100683.28;5032249;28;20551;-28
2024/02/17 09:44:40;;;;;;;15.20;10.07;;;;;;;19.98;33.21;100687.41;5032560;28;20688;-27
2024/02/17 09:47:06;;;;;;;22.58;12.10;;;;;;;19.23;33.91;100686.47;5032638;28;20079;-28
2024/02/17 09:49:35;;;;;;;18.95;10.95;;;;;;;18.93;34.81;100673.97;5031674;28;20033;-27
2024/02/17 09:52:01;;;;;;;17.90;11.23;;;;;;;18.49;35.49;100681.56;5032471;28;20017;-27
2024/02/17 09:54:28;;;;;;;16.83;10.05;;;;;;;18.51;35.94;100679.47;5032288;28;20025;-28
2024/02/17 09:56:54;;;;;;;14.07;9.80;;;;;;;19.18;34.39;100673.69;5032293;28;20022;-27
2024/02/17 09:59:20;;;;;;;14.05;9.48;;;;;;;19.32;33.86;100671.56;5032605;28;20500;-28
2024/02/17 10:01:48;;;;;;;12.82;9.25;;;;;;;19.48;34.22;100672.69;5031927;28;20071;-28
2024/02/17 10:04:13;;;;;;;16.45;12.13;;;;;;;19.92;34.23;100663.00;5032138;28;20138;-27
2024/02/17 10:06:40;;;;;;;15.15;10.57;;;;;;;20.44;32.96;100663.88;5032016;28;20021;-28
2024/02/17 10:09:06;;;;;;;17.33;11.48;;;;;;;20.99;32.24;100657.66;5031969;28;20025;-27
2024/02/17 10:11:32;;;;;;;16.88;10.65;;;;;;;21.31;31.47;100659.69;5031622;28;20021;-28
2024/02/17 10:14:04;;;;;;;14.35;9.25;;;;;;;20.89;31.57;100650.22;5031792;28;20116;-27
2024/02/17 10:16:31;;;;;;;14.00;9.93;;;;;;;20.63;31.78;100645.53;5032189;28;20486;-28
2024/02/17 10:18:59;;;;;;;16.88;10.90;;;;;;;19.90;33.19;100642.72;5031892;28;20041;-27
2024/02/17 10:21:25;;;;;;;13.93;9.30;;;;;;;19.90;33.04;100638.13;5032125;28;20029;-27
2024/02/17 10:23:51;;;;;;;12.52;9.10;;;;;;;19.96;33.78;100633.63;5032453;28;20079;-27
2024/02/17 10:26:17;;;;;;;15.25;10.10;;;;;;;20.39;32.31;100632.19;5031839;28;20036;-30
2024/02/17 10:28:42;;;;;;;12.13;8.88;;;;;;;20.71;32.32;100628.88;5031696;28;20025;-28
2024/02/17 10:31:08;;;;;;;13.48;9.70;;;;;;;20.52;31.91;100625.59;5031517;28;20029;-27
2024/02/17 10:33:37;;;;;;;16.08;9.27;;;;;;;20.76;31.81;100626.25;5031682;28;20057;-28
2024/02/17 10:36:04;;;;;;;12.75;8.65;;;;;;;21.35;31.47;100631.03;5031749;28;20139;-28
2024/02/17 10:38:30;;;;;;;11.55;8.90;;;;;;;21.73;30.35;100631.19;5031359;28;20105;-27
2024/02/17 10:40:55;;;;;;;17.02;9.73;;;;;;;21.16;30.30;100625.13;5031409;28;20104;-27
2024/02/17 10:43:21;;;;;;;13.02;9.18;;;;;;;21.08;31.21;100617.47;5031516;28;20505;-29
2024/02/17 10:45:51;;;;;;;14.75;8.77;;;;;;;21.02;30.80;100613.06;5031885;28;20021;-27
2024/02/17 10:48:19;;;;;;;13.95;9.68;;;;;;;19.29;33.03;100610.78;5031447;28;20329;-27
2024/02/17 10:50:46;;;;;;;16.73;9.80;;;;;;;19.33;33.29;100611.13;5031350;28;20033;-28
2024/02/17 10:53:20;;;;;;;17.48;10.48;;;;;;;19.14;33.83;100616.69;5031431;28;20029;-27
2024/02/17 10:55:51;;;;;;;16.02;9.95;;;;;;;19.16;34.03;100611.06;5031657;28;20036;-27
2024/02/17 10:58:17;;;;;;;16.23;10.85;;;;;;;19.48;33.29;100606.03;5031341;28;20017;-28
2024/02/17 11:00:48;;;;;;;19.30;11.18;;;;;;;18.53;35.59;100609.97;5031378;28;20021;-28
2024/02/17 11:03:17;;;;;;;14.63;10.10;;;;;;;19.25;33.67;100608.84;5031534;28;20548;-27
2024/02/17 11:05:46;;;;;;;14.88;9.75;;;;;;;19.92;32.99;100610.88;5031599;28;20043;-27
2024/02/17 11:08:12;;;;;;;14.80;9.77;;;;;;;19.02;33.38;100607.84;5031293;28;20103;-28
2024/02/17 11:10:41;;;;;;;14.52;9.55;;;;;;;18.95;33.51;100609.84;5031258;28;20013;-28
2024/02/17 11:13:20;;;;;;;14.85;9.68;;;;;;;19.69;33.47;100598.31;5021247;28;20021;-28